createdAt,value
2023-03-19T00:02:28.775Z,98269.00
2023-03-19T00:05:16.683Z,98267.00
2023-03-19T00:08:04.356Z,98270.00
2023-03-19T00:10:51.933Z,98286.00
2023-03-19T00:13:40.365Z,98297.00
2023-03-19T00:16:28.292Z,98291.00
2023-03-19T00:19:15.977Z,98299.00
2023-03-19T00:22:03.467Z,98290.00
2023-03-19T00:24:50.922Z,98294.00
2023-03-19T00:27:38.939Z,98293.00
2023-03-19T00:30:27.264Z,98287.00
2023-03-19T00:33:15.002Z,98289.00
2023-03-19T00:36:06.037Z,98281.00
2023-03-19T00:38:53.571Z,98278.00
2023-03-19T00:41:41.092Z,98275.00
2023-03-19T00:44:28.511Z,98284.00
2023-03-19T00:47:15.930Z,98283.00
2023-03-19T00:50:05.494Z,98287.00
2023-03-19T00:52:53.113Z,98290.00
2023-03-19T00:55:41.378Z,98293.00
2023-03-19T00:58:28.832Z,98290.00
2023-03-19T01:01:19.117Z,98279.00
2023-03-19T01:04:06.679Z,98273.00
2023-03-19T01:06:54.163Z,98271.00
2023-03-19T01:09:42.134Z,98275.00
2023-03-19T01:12:29.667Z,98281.00
2023-03-19T01:15:17.856Z,98285.00
2023-03-19T01:18:06.076Z,98274.00
2023-03-19T01:20:53.662Z,98274.00
2023-03-19T01:23:41.232Z,98282.00
2023-03-19T01:26:28.833Z,98291.00
2023-03-19T01:29:16.390Z,98282.00
2023-03-19T01:32:04.212Z,98275.00
2023-03-19T01:34:51.735Z,98279.00
2023-03-19T01:37:39.397Z,98269.00
2023-03-19T01:40:26.871Z,98278.00
2023-03-19T01:43:23.868Z,98287.00
2023-03-19T01:46:37.782Z,98305.00
2023-03-19T01:49:29.034Z,98292.00
2023-03-19T01:52:17.102Z,98285.00
2023-03-19T01:55:07.472Z,98287.00
2023-03-19T01:57:57.980Z,98291.00
2023-03-19T02:00:46.756Z,98289.00
2023-03-19T02:03:37.575Z,98294.00
2023-03-19T02:06:25.062Z,98300.00
2023-03-19T02:09:15.060Z,98293.00
2023-03-19T02:12:02.681Z,98305.00
2023-03-19T02:14:50.411Z,98301.00
2023-03-19T02:17:38.683Z,98294.00
2023-03-19T02:21:05.787Z,98294.00
2023-03-19T02:24:42.401Z,98298.00
2023-03-19T02:27:29.997Z,98296.00
2023-03-19T02:30:32.788Z,98289.00
2023-03-19T02:33:20.501Z,98292.00
2023-03-19T02:36:17.362Z,98299.00
2023-03-19T02:39:13.301Z,98300.00
2023-03-19T02:42:03.236Z,98308.00
2023-03-19T02:44:51.079Z,98304.00
2023-03-19T02:47:38.632Z,98306.00
2023-03-19T02:50:26.328Z,98318.00
2023-03-19T02:53:13.897Z,98320.00
2023-03-19T02:56:01.706Z,98320.00
2023-03-19T02:58:49.209Z,98316.00
2023-03-19T03:01:36.770Z,98319.00
2023-03-19T03:04:24.453Z,98310.00
2023-03-19T03:07:12.594Z,98309.00
2023-03-19T03:10:00.236Z,98317.00
2023-03-19T03:12:47.647Z,98318.00
2023-03-19T03:15:35.331Z,98313.00
2023-03-19T03:18:22.985Z,98316.00
2023-03-19T03:21:10.498Z,98319.00
2023-03-19T03:23:57.983Z,98323.00
2023-03-19T03:26:45.794Z,98321.00
2023-03-19T03:29:33.300Z,98329.00
2023-03-19T03:32:21.030Z,98335.00
2023-03-19T03:35:09.837Z,98338.00
2023-03-19T03:37:58.075Z,98337.00
2023-03-19T03:40:45.877Z,98336.00
2023-03-19T03:43:34.001Z,98337.00
2023-03-19T03:46:21.473Z,98339.00
2023-03-19T03:49:09.025Z,98339.00
2023-03-19T03:51:57.424Z,98346.00
2023-03-19T03:54:44.906Z,98347.00
2023-03-19T03:57:32.496Z,98345.00
2023-03-19T04:00:20.794Z,98349.00
2023-03-19T04:03:09.096Z,98346.00
2023-03-19T04:05:57.326Z,98335.00
2023-03-19T04:08:46.313Z,98332.00
2023-03-19T04:11:35.576Z,98335.00
2023-03-19T04:14:23.061Z,98333.00
2023-03-19T04:17:11.172Z,98327.00
2023-03-19T04:19:58.721Z,98337.00
2023-03-19T04:22:46.811Z,98335.00
2023-03-19T04:25:34.440Z,98335.00
2023-03-19T04:28:21.897Z,98338.00
2023-03-19T04:31:10.983Z,98341.00
2023-03-19T04:33:58.551Z,98345.00
2023-03-19T04:36:46.260Z,98344.00
2023-03-19T04:39:33.741Z,98346.00
2023-03-19T04:42:22.115Z,98340.00
2023-03-19T04:45:10.141Z,98344.00
2023-03-19T04:47:58.298Z,98337.00
2023-03-19T04:50:47.327Z,98327.00
2023-03-19T04:53:37.869Z,98325.00
2023-03-19T04:56:25.808Z,98332.00
2023-03-19T04:59:13.619Z,98333.00
2023-03-19T05:02:01.190Z,98337.00
2023-03-19T05:04:48.775Z,98337.00
2023-03-19T05:07:36.495Z,98345.00
2023-03-19T05:10:24.298Z,98355.00
2023-03-19T05:13:11.809Z,98350.00
2023-03-19T05:15:59.565Z,98358.00
2023-03-19T05:18:47.902Z,98378.00
2023-03-19T05:21:35.411Z,98387.00
2023-03-19T05:24:23.950Z,98392.00
2023-03-19T05:27:12.551Z,98388.00
2023-03-19T05:30:01.569Z,98398.00
2023-03-19T05:32:50.426Z,98397.00
2023-03-19T05:35:38.662Z,98396.00
2023-03-19T05:38:26.570Z,98394.00
2023-03-19T05:41:14.085Z,98401.00
2023-03-19T05:44:01.835Z,98402.00
2023-03-19T05:46:49.394Z,98397.00
2023-03-19T05:49:36.962Z,98403.00
2023-03-19T05:52:24.462Z,98398.00
2023-03-19T05:55:12.452Z,98397.00
2023-03-19T05:57:59.905Z,98400.00
2023-03-19T06:00:48.710Z,98399.00
2023-03-19T06:03:36.398Z,98401.00
2023-03-19T06:06:24.388Z,98404.00
2023-03-19T06:09:12.216Z,98424.00
2023-03-19T06:11:59.732Z,98425.00
2023-03-19T06:14:48.207Z,98426.00
2023-03-19T06:17:39.287Z,98438.00
2023-03-19T06:20:27.729Z,98433.00
2023-03-19T06:23:16.401Z,98439.00
2023-03-19T06:26:05.882Z,98445.00
2023-03-19T06:28:53.780Z,98458.00
2023-03-19T06:31:41.872Z,98471.00
2023-03-19T06:34:29.568Z,98468.00
2023-03-19T06:37:17.247Z,98470.00
2023-03-19T06:40:05.673Z,98465.00
2023-03-19T06:42:53.277Z,98461.00
2023-03-19T06:45:40.820Z,98463.00
2023-03-19T06:48:28.316Z,98481.00
2023-03-19T06:51:15.857Z,98483.00
2023-03-19T06:54:03.438Z,98482.00
2023-03-19T06:56:51.524Z,98489.00
2023-03-19T06:59:39.213Z,98494.00
2023-03-19T07:02:27.243Z,98504.00
2023-03-19T07:05:15.535Z,98506.00
2023-03-19T07:08:03.448Z,98492.00
2023-03-19T07:10:51.021Z,98494.00
2023-03-19T07:13:38.785Z,98486.00
2023-03-19T07:16:26.385Z,98481.00
2023-03-19T07:19:13.881Z,98493.00
2023-03-19T07:22:01.542Z,98493.00
2023-03-19T07:24:49.106Z,98487.00
2023-03-19T07:27:36.650Z,98488.00
2023-03-19T07:30:24.441Z,98504.00
2023-03-19T07:33:12.567Z,98497.00
2023-03-19T07:36:00.187Z,98490.00
2023-03-19T07:38:47.758Z,98494.00
2023-03-19T07:41:35.649Z,98496.00
2023-03-19T07:44:23.144Z,98496.00
2023-03-19T07:47:22.553Z,98497.00
2023-03-19T07:50:13.830Z,98495.00
2023-03-19T07:53:01.357Z,98503.00
2023-03-19T07:55:49.261Z,98508.00
2023-03-19T07:58:36.904Z,98501.00
2023-03-19T08:01:24.391Z,98502.00
2023-03-19T08:04:11.956Z,98510.00
2023-03-19T08:06:59.435Z,98509.00
2023-03-19T08:09:46.956Z,98512.00
2023-03-19T08:12:40.936Z,98503.00
2023-03-19T08:15:28.451Z,98507.00
2023-03-19T08:18:16.031Z,98504.00
2023-03-19T08:21:04.020Z,98514.00
2023-03-19T08:23:52.668Z,98514.00
2023-03-19T08:26:40.421Z,98516.00
2023-03-19T08:29:28.212Z,98520.00
2023-03-19T08:32:15.890Z,98523.00
2023-03-19T08:35:04.951Z,98528.00
2023-03-19T08:37:52.943Z,98525.00
2023-03-19T08:40:40.705Z,98523.00
2023-03-19T08:43:29.561Z,98523.00
2023-03-19T08:46:17.126Z,98527.00
2023-03-19T08:49:04.655Z,98522.00
2023-03-19T08:51:52.386Z,98531.00
2023-03-19T08:54:39.887Z,98524.00
2023-03-19T08:57:27.445Z,98538.00
2023-03-19T09:00:16.279Z,98528.00
2023-03-19T09:03:04.105Z,98530.00
2023-03-19T09:05:51.898Z,98530.00
2023-03-19T09:08:39.391Z,98529.00
2023-03-19T09:11:26.955Z,98541.00
2023-03-19T09:14:16.776Z,98538.00
2023-03-19T09:17:05.530Z,98524.00
2023-03-19T09:19:52.974Z,98542.00
2023-03-19T09:22:40.700Z,98537.00
2023-03-19T09:25:28.246Z,98535.00
2023-03-19T09:28:16.527Z,98527.00
2023-03-19T09:31:07.451Z,98524.00
2023-03-19T09:33:55.011Z,98520.00
2023-03-19T09:36:42.480Z,98527.00
2023-03-19T09:39:30.055Z,98519.00
2023-03-19T09:42:57.373Z,98516.00
2023-03-19T09:45:47.740Z,98516.00
2023-03-19T09:48:56.119Z,98523.00
2023-03-19T09:51:58.859Z,98527.00
2023-03-19T09:54:57.152Z,98530.00
2023-03-19T09:57:45.218Z,98519.00
2023-03-19T10:00:38.953Z,98520.00
2023-03-19T10:04:08.798Z,98516.00
2023-03-19T10:07:23.864Z,98523.00
2023-03-19T10:10:46.703Z,98529.00
2023-03-19T10:14:17.767Z,98523.00
2023-03-19T10:17:10.553Z,98524.00
2023-03-19T10:20:28.267Z,98531.00
2023-03-19T10:23:49.531Z,98528.00
2023-03-19T10:26:37.074Z,98520.00
2023-03-19T10:29:25.198Z,98522.00
2023-03-19T10:32:29.675Z,98520.00
2023-03-19T10:35:39.781Z,98520.00
2023-03-19T10:38:28.250Z,98513.00
2023-03-19T10:41:26.815Z,98510.00
2023-03-19T10:44:40.628Z,98502.00
2023-03-19T10:47:28.359Z,98498.00
2023-03-19T10:50:23.667Z,98496.00
2023-03-19T10:53:14.096Z,98506.00
2023-03-19T10:56:26.064Z,98500.00
2023-03-19T10:59:39.895Z,98497.00
2023-03-19T11:02:32.021Z,98492.00
2023-03-19T11:05:26.796Z,98490.00
2023-03-19T11:08:34.815Z,98493.00
2023-03-19T11:11:51.188Z,98489.00
2023-03-19T11:14:44.671Z,98484.00
2023-03-19T11:17:39.554Z,98481.00
2023-03-19T11:20:29.137Z,98482.00
2023-03-19T11:23:18.099Z,98481.00
2023-03-19T11:26:05.954Z,98476.00
2023-03-19T11:28:53.525Z,98471.00
2023-03-19T11:32:21.595Z,98473.00
2023-03-19T11:35:17.647Z,98474.00
2023-03-19T11:38:17.237Z,98471.00
2023-03-19T11:41:44.642Z,98466.00
2023-03-19T11:44:49.367Z,98450.00
2023-03-19T11:48:02.623Z,98457.00
2023-03-19T11:51:08.363Z,98440.00
2023-03-19T11:54:17.903Z,98433.00
2023-03-19T11:57:17.199Z,98436.00
2023-03-19T12:00:26.121Z,98436.00
2023-03-19T12:03:52.641Z,98432.00
2023-03-19T12:07:05.725Z,98429.00
2023-03-19T12:10:35.114Z,98431.00
2023-03-19T12:13:53.794Z,98423.00
2023-03-19T12:17:10.193Z,98427.00
2023-03-19T12:20:30.316Z,98427.00
2023-03-19T12:23:27.186Z,98428.00
2023-03-19T12:26:33.176Z,98423.00
2023-03-19T12:30:03.869Z,98423.00
2023-03-19T12:33:24.838Z,98425.00
2023-03-19T12:36:29.443Z,98413.00
2023-03-19T12:39:26.244Z,98424.00
2023-03-19T12:42:21.427Z,98415.00
2023-03-19T12:45:27.692Z,98426.00
2023-03-19T12:48:28.912Z,98422.00
2023-03-19T12:51:23.330Z,98419.00
2023-03-19T12:54:20.984Z,98419.00
2023-03-19T12:57:24.196Z,98414.00
2023-03-19T13:01:03.566Z,98407.00
2023-03-19T13:04:10.282Z,98407.00
2023-03-19T13:07:34.334Z,98412.00
2023-03-19T13:10:23.041Z,98405.00
2023-03-19T13:13:49.448Z,98403.00
2023-03-19T13:17:05.931Z,98398.00
2023-03-19T13:19:56.371Z,98390.00
2023-03-19T13:22:55.727Z,98387.00
2023-03-19T13:25:50.548Z,98382.00
2023-03-19T13:29:08.058Z,98384.00
2023-03-19T13:32:30.556Z,98390.00
2023-03-19T13:35:45.622Z,98386.00
2023-03-19T13:38:49.064Z,98389.00
2023-03-19T13:41:37.699Z,98373.00
2023-03-19T13:44:33.262Z,98369.00
2023-03-19T13:47:26.827Z,98370.00
2023-03-19T13:50:20.532Z,98369.00
2023-03-19T13:53:31.402Z,98376.00
2023-03-19T13:56:29.424Z,98370.00
2023-03-19T13:59:27.258Z,98378.00
2023-03-19T14:02:27.092Z,98371.00
2023-03-19T14:05:14.461Z,98376.00
2023-03-19T14:08:14.413Z,98373.00
2023-03-19T14:11:05.927Z,98374.00
2023-03-19T14:13:54.588Z,98370.00
2023-03-19T14:16:46.820Z,98370.00
2023-03-19T14:19:42.253Z,98375.00
2023-03-19T14:22:58.309Z,98372.00
2023-03-19T14:26:06.680Z,98367.00
2023-03-19T14:29:08.488Z,98380.00
2023-03-19T14:32:08.784Z,98379.00
2023-03-19T14:34:56.957Z,98382.00
2023-03-19T14:37:51.427Z,98368.00
2023-03-19T14:40:52.280Z,98368.00
2023-03-19T14:44:08.968Z,98364.00
2023-03-19T14:47:08.365Z,98362.00
2023-03-19T14:50:26.248Z,98359.00
2023-03-19T14:53:39.141Z,98366.00
2023-03-19T14:56:37.048Z,98369.00
2023-03-19T14:59:24.595Z,98371.00
2023-03-19T15:02:53.890Z,98372.00
2023-03-19T15:05:41.447Z,98371.00
2023-03-19T15:08:33.603Z,98368.00
2023-03-19T15:11:50.452Z,98373.00
2023-03-19T15:15:07.280Z,98378.00
2023-03-19T15:18:04.470Z,98377.00
2023-03-19T15:20:57.122Z,98383.00
2023-03-19T15:23:47.970Z,98383.00
2023-03-19T15:26:37.563Z,98386.00
2023-03-19T15:29:33.322Z,98387.00
2023-03-19T15:33:10.488Z,98384.00
2023-03-19T15:35:52.474Z,98385.00
2023-03-19T15:38:52.461Z,98384.00
2023-03-19T15:41:47.385Z,98394.00
2023-03-19T15:44:47.154Z,98391.00
2023-03-19T15:47:41.923Z,98392.00
2023-03-19T15:50:35.722Z,98391.00
2023-03-19T15:53:28.790Z,98392.00
2023-03-19T15:56:20.369Z,98394.00
2023-03-19T15:59:08.093Z,98393.00
2023-03-19T16:02:02.030Z,98396.00
2023-03-19T16:05:18.045Z,98402.00
2023-03-19T16:08:18.934Z,98400.00
2023-03-19T16:11:28.862Z,98405.00
2023-03-19T16:14:25.018Z,98409.00
2023-03-19T16:17:16.914Z,98413.00
2023-03-19T16:20:06.289Z,98413.00
2023-03-19T16:22:58.810Z,98412.00
2023-03-19T16:25:47.274Z,98413.00
2023-03-19T16:28:34.762Z,98423.00
2023-03-19T16:31:29.878Z,98421.00
2023-03-19T16:34:46.511Z,98426.00
2023-03-19T16:37:55.288Z,98428.00
2023-03-19T16:41:10.989Z,98427.00
2023-03-19T16:44:29.316Z,98434.00
2023-03-19T16:47:17.988Z,98438.00
2023-03-19T16:50:06.431Z,98442.00
2023-03-19T16:52:53.921Z,98444.00
2023-03-19T16:55:42.260Z,98442.00
2023-03-19T16:58:48.419Z,98439.00
2023-03-19T17:01:36.010Z,98449.00
2023-03-19T17:04:24.222Z,98448.00
2023-03-19T17:07:12.622Z,98457.00
2023-03-19T17:10:00.153Z,98449.00
2023-03-19T17:12:54.478Z,98453.00
2023-03-19T17:15:42.856Z,98462.00
2023-03-19T17:18:38.486Z,98450.00
2023-03-19T17:21:30.759Z,98451.00
2023-03-19T17:24:36.636Z,98454.00
2023-03-19T17:27:24.154Z,98455.00
2023-03-19T17:30:13.857Z,98460.00
2023-03-19T17:33:01.553Z,98457.00
2023-03-19T17:35:49.247Z,98466.00
2023-03-19T17:38:36.873Z,98464.00
2023-03-19T17:41:24.588Z,98466.00
2023-03-19T17:44:12.243Z,98469.00
2023-03-19T17:46:59.929Z,98463.00
2023-03-19T17:49:48.016Z,98468.00
2023-03-19T17:52:36.401Z,98472.00
2023-03-19T17:55:29.953Z,98468.00
2023-03-19T17:58:21.355Z,98464.00
2023-03-19T18:01:23.599Z,98471.00
2023-03-19T18:04:19.611Z,98473.00
2023-03-19T18:07:10.907Z,98476.00
2023-03-19T18:09:58.417Z,98472.00
2023-03-19T18:12:45.973Z,98477.00
2023-03-19T18:15:34.586Z,98474.00
2023-03-19T18:18:22.490Z,98476.00
2023-03-19T18:21:15.707Z,98480.00
2023-03-19T18:24:04.712Z,98483.00
2023-03-19T18:26:52.199Z,98478.00
2023-03-19T18:29:39.685Z,98486.00
2023-03-19T18:32:32.773Z,98484.00
2023-03-19T18:35:27.838Z,98483.00
2023-03-19T18:38:22.846Z,98478.00
2023-03-19T18:41:20.142Z,98483.00
2023-03-19T18:44:09.270Z,98487.00
2023-03-19T18:46:56.894Z,98492.00
2023-03-19T18:49:44.862Z,98490.00
2023-03-19T18:52:32.418Z,98491.00
2023-03-19T18:55:26.843Z,98497.00
2023-03-19T18:58:23.363Z,98498.00
2023-03-19T19:01:18.093Z,98502.00
2023-03-19T19:04:05.927Z,98495.00
2023-03-19T19:06:54.629Z,98491.00
2023-03-19T19:09:42.488Z,98497.00
2023-03-19T19:12:30.167Z,98502.00
2023-03-19T19:15:30.134Z,98505.00
2023-03-19T19:18:29.166Z,98506.00
2023-03-19T19:21:16.768Z,98508.00
2023-03-19T19:24:04.596Z,98511.00
2023-03-19T19:26:54.298Z,98519.00
2023-03-19T19:29:42.397Z,98521.00
2023-03-19T19:32:30.973Z,98523.00
2023-03-19T19:35:26.831Z,98521.00
2023-03-19T19:38:15.649Z,98519.00
2023-03-19T19:41:04.531Z,98523.00
2023-03-19T19:43:55.767Z,98524.00
2023-03-19T19:46:44.086Z,98522.00
2023-03-19T19:49:32.000Z,98530.00
2023-03-19T19:52:20.401Z,98537.00
2023-03-19T19:55:08.706Z,98531.00
2023-03-19T19:57:58.063Z,98541.00
2023-03-19T20:01:00.154Z,98536.00
2023-03-19T20:03:52.129Z,98542.00
2023-03-19T20:06:39.623Z,98542.00
2023-03-19T20:09:27.558Z,98545.00
2023-03-19T20:12:29.720Z,98540.00
2023-03-19T20:15:35.078Z,98551.00
2023-03-19T20:18:25.830Z,98550.00
2023-03-19T20:21:15.144Z,98556.00
2023-03-19T20:24:02.819Z,98552.00
2023-03-19T20:26:50.458Z,98548.00
2023-03-19T20:29:40.528Z,98552.00
2023-03-19T20:32:38.478Z,98550.00
2023-03-19T20:35:29.931Z,98556.00
2023-03-19T20:38:17.668Z,98561.00
2023-03-19T20:41:20.395Z,98557.00
2023-03-19T20:44:07.924Z,98557.00
2023-03-19T20:46:55.457Z,98562.00
2023-03-19T20:49:43.232Z,98561.00
2023-03-19T20:52:30.945Z,98566.00
2023-03-19T20:55:22.707Z,98571.00
2023-03-19T20:58:24.041Z,98572.00
2023-03-19T21:01:11.927Z,98578.00
2023-03-19T21:03:59.438Z,98586.00
2023-03-19T21:06:53.461Z,98581.00
2023-03-19T21:09:41.915Z,98589.00
2023-03-19T21:12:33.349Z,98590.00
2023-03-19T21:15:21.313Z,98586.00
2023-03-19T21:18:09.197Z,98587.00
2023-03-19T21:20:58.115Z,98584.00
2023-03-19T21:23:59.857Z,98583.00
2023-03-19T21:26:48.665Z,98590.00
2023-03-19T21:29:36.389Z,98583.00
2023-03-19T21:32:23.839Z,98580.00
2023-03-19T21:35:21.576Z,98586.00
2023-03-19T21:38:09.059Z,98593.00
2023-03-19T21:41:05.114Z,98576.00
2023-03-19T21:44:00.059Z,98585.00
2023-03-19T21:46:48.675Z,98580.00
2023-03-19T21:49:36.298Z,98592.00
2023-03-19T21:52:23.782Z,98586.00
2023-03-19T21:55:17.378Z,98587.00
2023-03-19T21:58:09.941Z,98579.00
2023-03-19T22:00:57.859Z,98579.00
2023-03-19T22:03:45.919Z,98584.00
2023-03-19T22:06:34.439Z,98584.00
2023-03-19T22:09:21.929Z,98582.00
2023-03-19T22:12:29.009Z,98597.00
2023-03-19T22:15:31.287Z,98597.00
2023-03-19T22:18:19.258Z,98591.00
2023-03-19T22:21:09.317Z,98595.00
2023-03-19T22:23:56.835Z,98596.00
2023-03-19T22:26:47.230Z,98602.00
2023-03-19T22:29:34.879Z,98606.00
2023-03-19T22:32:22.457Z,98604.00
2023-03-19T22:35:19.708Z,98601.00
2023-03-19T22:38:07.285Z,98605.00
2023-03-19T22:40:56.851Z,98604.00
2023-03-19T22:43:46.467Z,98615.00
2023-03-19T22:46:34.438Z,98613.00
2023-03-19T22:49:21.983Z,98615.00
2023-03-19T22:52:14.003Z,98619.00
2023-03-19T22:55:01.532Z,98614.00
2023-03-19T22:57:49.460Z,98615.00
2023-03-19T23:00:37.446Z,98610.00
2023-03-19T23:03:30.974Z,98614.00
2023-03-19T23:06:30.682Z,98619.00
2023-03-19T23:09:32.451Z,98620.00
2023-03-19T23:12:20.600Z,98617.00
2023-03-19T23:15:09.671Z,98619.00
2023-03-19T23:17:59.644Z,98617.00
2023-03-19T23:20:49.247Z,98622.00
2023-03-19T23:23:37.631Z,98620.00
2023-03-19T23:26:30.213Z,98618.00
2023-03-19T23:29:22.376Z,98617.00
2023-03-19T23:32:12.735Z,98619.00
2023-03-19T23:35:01.849Z,98620.00
2023-03-19T23:37:50.764Z,98623.00
2023-03-19T23:40:46.953Z,98623.00
2023-03-19T23:43:35.443Z,98616.00
2023-03-19T23:46:23.040Z,98627.00
2023-03-19T23:49:24.133Z,98628.00
2023-03-19T23:52:14.268Z,98622.00
2023-03-19T23:55:01.777Z,98626.00
2023-03-19T23:57:50.363Z,98634.00
